sensor_id;sensor_type;location;lat;lon;timestamp;temperature;humidity
49052;DHT22;34866;48.670;18.260;2023-09-19T00:00:26;614.40;128.00
49052;DHT22;34866;48.670;18.260;2023-09-19T00:02:57;589.70;128.00
49052;DHT22;34866;48.670;18.260;2023-09-19T00:05:28;589.70;128.00
49052;DHT22;34866;48.670;18.260;2023-09-19T00:07:56;589.70;128.00
49052;DHT22;34866;48.670;18.260;2023-09-19T00:10:26;589.70;128.00
49052;DHT22;34866;48.670;18.260;2023-09-19T00:12:53;589.60;128.00
49052;DHT22;34866;48.670;18.260;2023-09-19T00:15:21;589.10;128.00
49052;DHT22;34866;48.670;18.260;2023-09-19T00:17:47;589.60;128.00
49052;DHT22;34866;48.670;18.260;2023-09-19T00:20:14;589.50;128.00
49052;DHT22;34866;48.670;18.260;2023-09-19T00:22:43;589.40;128.00
49052;DHT22;34866;48.670;18.260;2023-09-19T00:25:09;589.30;128.00
49052;DHT22;34866;48.670;18.260;2023-09-19T00:27:36;589.10;128.00
49052;DHT22;34866;48.670;18.260;2023-09-19T00:30:08;589.20;128.00
49052;DHT22;34866;48.670;18.260;2023-09-19T00:32:41;589.10;128.00
49052;DHT22;34866;48.670;18.260;2023-09-19T00:35:07;589.10;128.00
49052;DHT22;34866;48.670;18.260;2023-09-19T00:37:36;589.00;128.00
49052;DHT22;34866;48.670;18.260;2023-09-19T00:40:06;589.00;128.00
49052;DHT22;34866;48.670;18.260;2023-09-19T00:42:36;588.90;128.00
49052;DHT22;34866;48.670;18.260;2023-09-19T00:45:04;588.90;128.00
49052;DHT22;34866;48.670;18.260;2023-09-19T00:47:30;588.80;128.00
49052;DHT22;34866;48.670;18.260;2023-09-19T00:49:56;588.80;128.00
49052;DHT22;34866;48.670;18.260;2023-09-19T00:52:22;588.90;128.00
49052;DHT22;34866;48.670;18.260;2023-09-19T00:54:49;588.80;128.00
49052;DHT22;34866;48.670;18.260;2023-09-19T00:57:16;588.80;128.00
49052;DHT22;34866;48.670;18.260;2023-09-19T00:59:45;588.80;128.00
49052;DHT22;34866;48.670;18.260;2023-09-19T01:02:15;588.80;128.00
49052;DHT22;34866;48.670;18.260;2023-09-19T01:04:41;588.80;128.00
49052;DHT22;34866;48.670;18.260;2023-09-19T01:07:08;564.10;128.00
49052;DHT22;34866;48.670;18.260;2023-09-19T01:09:35;564.00;128.00
49052;DHT22;34866;48.670;18.260;2023-09-19T01:12:03;564.00;128.00
49052;DHT22;34866;48.670;18.260;2023-09-19T01:14:44;564.00;128.00
49052;DHT22;34866;48.670;18.260;2023-09-19T01:17:24;563.90;128.00
49052;DHT22;34866;48.670;18.260;2023-09-19T01:26:07;563.90;128.00
49052;DHT22;34866;48.670;18.260;2023-09-19T01:31:40;563.90;128.00
49052;DHT22;34866;48.670;18.260;2023-09-19T01:34:08;563.80;128.00
49052;DHT22;34866;48.670;18.260;2023-09-19T01:36:36;563.70;128.00
49052;DHT22;34866;48.670;18.260;2023-09-19T01:39:11;563.70;128.00
49052;DHT22;34866;48.670;18.260;2023-09-19T01:41:54;563.80;128.00
49052;DHT22;34866;48.670;18.260;2023-09-19T01:44:31;563.80;128.00
49052;DHT22;34866;48.670;18.260;2023-09-19T01:47:05;563.80;128.00
49052;DHT22;34866;48.670;18.260;2023-09-19T01:49:44;563.80;128.00
49052;DHT22;34866;48.670;18.260;2023-09-19T01:52:13;563.90;128.00
49052;DHT22;34866;48.670;18.260;2023-09-19T01:54:52;563.80;128.00
49052;DHT22;34866;48.670;18.260;2023-09-19T01:59:52;563.80;128.00
49052;DHT22;34866;48.670;18.260;2023-09-19T02:02:21;563.70;128.00
49052;DHT22;34866;48.670;18.260;2023-09-19T02:04:48;563.70;128.00
49052;DHT22;34866;48.670;18.260;2023-09-19T02:07:16;563.70;128.00
49052;DHT22;34866;48.670;18.260;2023-09-19T02:09:42;563.60;128.00
49052;DHT22;34866;48.670;18.260;2023-09-19T02:12:09;563.60;128.00
49052;DHT22;34866;48.670;18.260;2023-09-19T02:14:35;563.50;128.00
49052;DHT22;34866;48.670;18.260;2023-09-19T02:17:02;563.60;128.00
49052;DHT22;34866;48.670;18.260;2023-09-19T02:19:32;563.60;128.00
49052;DHT22;34866;48.670;18.260;2023-09-19T02:22:00;563.60;128.00
49052;DHT22;34866;48.670;18.260;2023-09-19T02:24:28;563.70;128.00
49052;DHT22;34866;48.670;18.260;2023-09-19T02:26:54;563.60;128.00
49052;DHT22;34866;48.670;18.260;2023-09-19T02:29:21;563.50;128.00
49052;DHT22;34866;48.670;18.260;2023-09-19T02:31:47;563.50;128.00
49052;DHT22;34866;48.670;18.260;2023-09-19T02:34:13;563.40;128.00
49052;DHT22;34866;48.670;18.260;2023-09-19T02:36:39;563.40;128.00
49052;DHT22;34866;48.670;18.260;2023-09-19T02:39:05;563.40;128.00
49052;DHT22;34866;48.670;18.260;2023-09-19T02:41:31;563.40;691.20
49052;DHT22;34866;48.670;18.260;2023-09-19T02:43:58;563.40;691.20
49052;DHT22;34866;48.670;18.260;2023-09-19T02:46:24;563.40;614.40
49052;DHT22;34866;48.670;18.260;2023-09-19T02:48:50;563.40;128.00
49052;DHT22;34866;48.670;18.260;2023-09-19T02:51:16;563.40;128.00
49052;DHT22;34866;48.670;18.260;2023-09-19T02:53:41;563.30;665.60
49052;DHT22;34866;48.670;18.260;2023-09-19T02:56:07;563.40;128.00
49052;DHT22;34866;48.670;18.260;2023-09-19T02:58:35;563.40;128.00
49052;DHT22;34866;48.670;18.260;2023-09-19T03:01:11;563.40;128.00
49052;DHT22;34866;48.670;18.260;2023-09-19T03:03:38;563.40;128.00
49052;DHT22;34866;48.670;18.260;2023-09-19T03:06:08;563.30;128.00
49052;DHT22;34866;48.670;18.260;2023-09-19T03:08:35;563.40;128.00
49052;DHT22;34866;48.670;18.260;2023-09-19T03:11:03;563.40;128.00
49052;DHT22;34866;48.670;18.260;2023-09-19T03:13:32;563.40;128.00
49052;DHT22;34866;48.670;18.260;2023-09-19T03:15:57;563.40;128.00
49052;DHT22;34866;48.670;18.260;2023-09-19T03:18:26;563.40;128.00
49052;DHT22;34866;48.670;18.260;2023-09-19T03:20:58;563.40;128.00
49052;DHT22;34866;48.670;18.260;2023-09-19T03:23:26;563.30;128.00
49052;DHT22;34866;48.670;18.260;2023-09-19T03:25:52;563.30;128.00
49052;DHT22;34866;48.670;18.260;2023-09-19T03:28:24;563.30;128.00
49052;DHT22;34866;48.670;18.260;2023-09-19T03:31:04;563.20;128.00
49052;DHT22;34866;48.670;18.260;2023-09-19T03:33:31;563.20;128.00
49052;DHT22;34866;48.670;18.260;2023-09-19T03:35:58;563.20;128.00
49052;DHT22;34866;48.670;18.260;2023-09-19T03:38:27;563.20;128.00
49052;DHT22;34866;48.670;18.260;2023-09-19T03:40:54;538.50;128.00
49052;DHT22;34866;48.670;18.260;2023-09-19T03:43:21;538.50;128.00
49052;DHT22;34866;48.670;18.260;2023-09-19T03:45:46;538.50;128.00
49052;DHT22;34866;48.670;18.260;2023-09-19T03:48:12;563.20;128.00
49052;DHT22;34866;48.670;18.260;2023-09-19T03:50:39;538.50;128.00
49052;DHT22;34866;48.670;18.260;2023-09-19T03:53:06;538.40;128.00
49052;DHT22;34866;48.670;18.260;2023-09-19T03:55:34;538.30;128.00
49052;DHT22;34866;48.670;18.260;2023-09-19T03:58:01;538.40;128.00
49052;DHT22;34866;48.670;18.260;2023-09-19T04:00:27;538.40;128.00
49052;DHT22;34866;48.670;18.260;2023-09-19T04:02:55;538.30;128.00
49052;DHT22;34866;48.670;18.260;2023-09-19T04:05:23;538.40;128.00
49052;DHT22;34866;48.670;18.260;2023-09-19T04:07:49;538.30;128.00
49052;DHT22;34866;48.670;18.260;2023-09-19T04:10:19;538.30;128.00
49052;DHT22;34866;48.670;18.260;2023-09-19T04:12:54;538.30;128.00
49052;DHT22;34866;48.670;18.260;2023-09-19T04:15:20;538.30;128.00
49052;DHT22;34866;48.670;18.260;2023-09-19T04:17:50;538.20;128.00
49052;DHT22;34866;48.670;18.260;2023-09-19T04:20:19;538.10;128.00
49052;DHT22;34866;48.670;18.260;2023-09-19T04:22:45;538.20;128.00
49052;DHT22;34866;48.670;18.260;2023-09-19T04:25:12;538.20;128.00
49052;DHT22;34866;48.670;18.260;2023-09-19T04:27:38;538.20;128.00
49052;DHT22;34866;48.670;18.260;2023-09-19T04:30:05;538.30;128.00
49052;DHT22;34866;48.670;18.260;2023-09-19T04:32:35;538.20;128.00
49052;DHT22;34866;48.670;18.260;2023-09-19T04:35:04;538.30;128.00
49052;DHT22;34866;48.670;18.260;2023-09-19T04:37:31;538.20;128.00
49052;DHT22;34866;48.670;18.260;2023-09-19T04:39:58;538.20;128.00
49052;DHT22;34866;48.670;18.260;2023-09-19T04:42:23;538.10;128.00
49052;DHT22;34866;48.670;18.260;2023-09-19T04:44:50;538.10;128.00
49052;DHT22;34866;48.670;18.260;2023-09-19T04:47:18;538.00;128.00
49052;DHT22;34866;48.670;18.260;2023-09-19T04:49:43;538.10;128.00
49052;DHT22;34866;48.670;18.260;2023-09-19T04:52:09;538.20;128.00
49052;DHT22;34866;48.670;18.260;2023-09-19T04:54:35;538.10;128.00
49052;DHT22;34866;48.670;18.260;2023-09-19T04:57:00;538.20;128.00
49052;DHT22;34866;48.670;18.260;2023-09-19T04:59:26;538.10;128.00
49052;DHT22;34866;48.670;18.260;2023-09-19T05:01:53;538.10;128.00
49052;DHT22;34866;48.670;18.260;2023-09-19T05:04:19;538.20;128.00
49052;DHT22;34866;48.670;18.260;2023-09-19T05:06:45;538.10;128.00
49052;DHT22;34866;48.670;18.260;2023-09-19T05:09:10;538.10;128.00
49052;DHT22;34866;48.670;18.260;2023-09-19T05:11:36;538.00;128.00
49052;DHT22;34866;48.670;18.260;2023-09-19T05:14:03;538.00;128.00
49052;DHT22;34866;48.670;18.260;2023-09-19T05:16:32;537.90;128.00
49052;DHT22;34866;48.670;18.260;2023-09-19T05:18:58;537.80;128.00
49052;DHT22;34866;48.670;18.260;2023-09-19T05:21:26;537.80;128.00
49052;DHT22;34866;48.670;18.260;2023-09-19T05:23:54;537.60;128.00
49052;DHT22;34866;48.670;18.260;2023-09-19T05:26:20;537.60;128.00
49052;DHT22;34866;48.670;18.260;2023-09-19T05:28:46;512.90;128.00
49052;DHT22;34866;48.670;18.260;2023-09-19T05:31:13;512.80;128.00
49052;DHT22;34866;48.670;18.260;2023-09-19T05:33:41;512.80;128.00
49052;DHT22;34866;48.670;18.260;2023-09-19T05:36:08;512.70;128.00
49052;DHT22;34866;48.670;18.260;2023-09-19T05:38:36;512.80;128.00
49052;DHT22;34866;48.670;18.260;2023-09-19T05:41:02;512.80;128.00
49052;DHT22;34866;48.670;18.260;2023-09-19T05:43:28;512.70;128.00
49052;DHT22;34866;48.670;18.260;2023-09-19T05:45:53;512.60;128.00
49052;DHT22;34866;48.670;18.260;2023-09-19T05:48:22;512.70;128.00
49052;DHT22;34866;48.670;18.260;2023-09-19T05:50:48;512.60;128.00
49052;DHT22;34866;48.670;18.260;2023-09-19T05:53:16;512.60;128.00
49052;DHT22;34866;48.670;18.260;2023-09-19T05:55:44;512.60;128.00
49052;DHT22;34866;48.670;18.260;2023-09-19T05:58:09;512.50;128.00
49052;DHT22;34866;48.670;18.260;2023-09-19T06:00:35;512.50;128.00
49052;DHT22;34866;48.670;18.260;2023-09-19T06:03:02;512.50;128.00
49052;DHT22;34866;48.670;18.260;2023-09-19T06:05:28;512.50;128.00
49052;DHT22;34866;48.670;18.260;2023-09-19T06:07:55;512.50;128.00
49052;DHT22;34866;48.670;18.260;2023-09-19T06:10:26;512.50;128.00
49052;DHT22;34866;48.670;18.260;2023-09-19T06:12:53;512.50;128.00
49052;DHT22;34866;48.670;18.260;2023-09-19T06:15:20;512.50;128.00
49052;DHT22;34866;48.670;18.260;2023-09-19T06:17:53;512.40;128.00
49052;DHT22;34866;48.670;18.260;2023-09-19T06:20:22;512.40;128.00
49052;DHT22;34866;48.670;18.260;2023-09-19T06:22:49;512.40;128.00
49052;DHT22;34866;48.670;18.260;2023-09-19T06:25:16;512.50;128.00
49052;DHT22;34866;48.670;18.260;2023-09-19T06:27:45;512.40;128.00
49052;DHT22;34866;48.670;18.260;2023-09-19T06:30:11;512.50;128.00
49052;DHT22;34866;48.670;18.260;2023-09-19T06:32:37;512.60;128.00
49052;DHT22;34866;48.670;18.260;2023-09-19T06:35:04;512.60;128.00
49052;DHT22;34866;48.670;18.260;2023-09-19T06:37:32;512.60;128.00
49052;DHT22;34866;48.670;18.260;2023-09-19T06:40:08;512.60;128.00
49052;DHT22;34866;48.670;18.260;2023-09-19T06:42:42;512.60;128.00
49052;DHT22;34866;48.670;18.260;2023-09-19T06:45:09;512.70;128.00
49052;DHT22;34866;48.670;18.260;2023-09-19T06:47:37;512.70;128.00
49052;DHT22;34866;48.670;18.260;2023-09-19T06:50:03;512.70;128.00
49052;DHT22;34866;48.670;18.260;2023-09-19T06:52:31;512.70;128.00
49052;DHT22;34866;48.670;18.260;2023-09-19T06:54:57;512.60;128.00
49052;DHT22;34866;48.670;18.260;2023-09-19T06:57:23;512.70;128.00
49052;DHT22;34866;48.670;18.260;2023-09-19T06:59:50;512.70;128.00
49052;DHT22;34866;48.670;18.260;2023-09-19T07:02:15;512.70;128.00
49052;DHT22;34866;48.670;18.260;2023-09-19T07:04:41;512.70;128.00
49052;DHT22;34866;48.670;18.260;2023-09-19T07:07:07;512.70;128.00
49052;DHT22;34866;48.670;18.260;2023-09-19T07:09:34;512.70;128.00
49052;DHT22;34866;48.670;18.260;2023-09-19T07:12:00;512.80;128.00
49052;DHT22;34866;48.670;18.260;2023-09-19T07:14:26;512.70;128.00
49052;DHT22;34866;48.670;18.260;2023-09-19T07:16:52;512.70;128.00
49052;DHT22;34866;48.670;18.260;2023-09-19T07:19:18;512.70;128.00
49052;DHT22;34866;48.670;18.260;2023-09-19T07:21:43;512.70;128.00
49052;DHT22;34866;48.670;18.260;2023-09-19T07:24:10;512.80;128.00
49052;DHT22;34866;48.670;18.260;2023-09-19T07:26:35;512.80;128.00
49052;DHT22;34866;48.670;18.260;2023-09-19T07:29:01;512.90;128.00
49052;DHT22;34866;48.670;18.260;2023-09-19T07:31:29;537.60;128.00
49052;DHT22;34866;48.670;18.260;2023-09-19T07:33:56;537.70;128.00
49052;DHT22;34866;48.670;18.260;2023-09-19T07:36:21;537.70;128.00
49052;DHT22;34866;48.670;18.260;2023-09-19T07:38:50;537.80;128.00
49052;DHT22;34866;48.670;18.260;2023-09-19T07:41:15;537.80;128.00
49052;DHT22;34866;48.670;18.260;2023-09-19T07:43:41;537.80;128.00
49052;DHT22;34866;48.670;18.260;2023-09-19T07:46:07;537.90;128.00
49052;DHT22;34866;48.670;18.260;2023-09-19T07:48:35;512.80;128.00
49052;DHT22;34866;48.670;18.260;2023-09-19T07:51:05;538.00;128.00
49052;DHT22;34866;48.670;18.260;2023-09-19T07:53:32;537.90;128.00
49052;DHT22;34866;48.670;18.260;2023-09-19T07:56:07;538.10;128.00
49052;DHT22;34866;48.670;18.260;2023-09-19T07:58:33;538.10;128.00
49052;DHT22;34866;48.670;18.260;2023-09-19T08:01:06;538.20;128.00
49052;DHT22;34866;48.670;18.260;2023-09-19T08:03:35;538.20;128.00
49052;DHT22;34866;48.670;18.260;2023-09-19T08:06:06;538.20;128.00
49052;DHT22;34866;48.670;18.260;2023-09-19T08:08:33;538.20;128.00
49052;DHT22;34866;48.670;18.260;2023-09-19T08:11:05;538.20;128.00
49052;DHT22;34866;48.670;18.260;2023-09-19T08:13:41;538.30;128.00
49052;DHT22;34866;48.670;18.260;2023-09-19T08:16:10;538.30;128.00
49052;DHT22;34866;48.670;18.260;2023-09-19T08:18:36;538.30;128.00
49052;DHT22;34866;48.670;18.260;2023-09-19T08:21:03;538.30;128.00
49052;DHT22;34866;48.670;18.260;2023-09-19T08:23:29;538.30;128.00
49052;DHT22;34866;48.670;18.260;2023-09-19T08:25:57;538.40;128.00
49052;DHT22;34866;48.670;18.260;2023-09-19T08:28:25;538.50;128.00
49052;DHT22;34866;48.670;18.260;2023-09-19T08:30:50;538.50;128.00
49052;DHT22;34866;48.670;18.260;2023-09-19T08:33:18;563.20;128.00
49052;DHT22;34866;48.670;18.260;2023-09-19T08:35:43;563.20;128.00
49052;DHT22;34866;48.670;18.260;2023-09-19T08:38:10;563.30;128.00
49052;DHT22;34866;48.670;18.260;2023-09-19T08:40:38;563.30;128.00
49052;DHT22;34866;48.670;18.260;2023-09-19T08:43:05;563.30;128.00
49052;DHT22;34866;48.670;18.260;2023-09-19T08:45:33;563.40;128.00
49052;DHT22;34866;48.670;18.260;2023-09-19T08:48:25;563.40;128.00
49052;DHT22;34866;48.670;18.260;2023-09-19T08:53:41;563.50;128.00
49052;DHT22;34866;48.670;18.260;2023-09-19T08:56:10;563.60;128.00
49052;DHT22;34866;48.670;18.260;2023-09-19T08:58:51;563.60;128.00
49052;DHT22;34866;48.670;18.260;2023-09-19T09:01:20;563.60;128.00
49052;DHT22;34866;48.670;18.260;2023-09-19T09:03:53;563.70;128.00
49052;DHT22;34866;48.670;18.260;2023-09-19T09:06:20;563.80;128.00
49052;DHT22;34866;48.670;18.260;2023-09-19T09:08:46;564.10;128.00
49052;DHT22;34866;48.670;18.260;2023-09-19T09:11:15;563.90;128.00
49052;DHT22;34866;48.670;18.260;2023-09-19T09:13:45;564.00;128.00
49052;DHT22;34866;48.670;18.260;2023-09-19T09:16:12;564.10;128.00
49052;DHT22;34866;48.670;18.260;2023-09-19T09:18:39;588.80;128.00
49052;DHT22;34866;48.670;18.260;2023-09-19T09:21:05;589.00;128.00
49052;DHT22;34866;48.670;18.260;2023-09-19T09:23:31;589.10;128.00
49052;DHT22;34866;48.670;18.260;2023-09-19T09:25:59;589.20;128.00
49052;DHT22;34866;48.670;18.260;2023-09-19T09:28:30;589.30;716.80
49052;DHT22;34866;48.670;18.260;2023-09-19T09:30:57;589.40;128.00
49052;DHT22;34866;48.670;18.260;2023-09-19T09:33:34;589.50;256.00
49052;DHT22;34866;48.670;18.260;2023-09-19T09:36:01;589.60;128.00
49052;DHT22;34866;48.670;18.260;2023-09-19T09:38:30;589.70;128.00
49052;DHT22;34866;48.670;18.260;2023-09-19T09:41:00;614.50;128.00
49052;DHT22;34866;48.670;18.260;2023-09-19T09:43:37;614.50;128.00
49052;DHT22;34866;48.670;18.260;2023-09-19T09:46:17;614.60;128.00
49052;DHT22;34866;48.670;18.260;2023-09-19T09:48:59;614.70;128.00
49052;DHT22;34866;48.670;18.260;2023-09-19T09:54:15;614.90;128.00
49052;DHT22;34866;48.670;18.260;2023-09-19T09:56:58;615.10;128.00
49052;DHT22;34866;48.670;18.260;2023-09-19T09:59:53;615.30;128.00
49052;DHT22;34866;48.670;18.260;2023-09-19T10:02:21;615.30;128.00
49052;DHT22;34866;48.670;18.260;2023-09-19T10:04:52;640.00;128.00
49052;DHT22;34866;48.670;18.260;2023-09-19T10:07:28;640.00;128.00
49052;DHT22;34866;48.670;18.260;2023-09-19T10:09:59;640.10;128.00
49052;DHT22;34866;48.670;18.260;2023-09-19T10:12:32;640.10;128.00
49052;DHT22;34866;48.670;18.260;2023-09-19T10:15:04;640.20;128.00
49052;DHT22;34866;48.670;18.260;2023-09-19T10:17:34;640.20;128.00
49052;DHT22;34866;48.670;18.260;2023-09-19T10:20:01;640.30;128.00
49052;DHT22;34866;48.670;18.260;2023-09-19T10:22:35;640.40;128.00
49052;DHT22;34866;48.670;18.260;2023-09-19T10:25:04;640.50;128.00
49052;DHT22;34866;48.670;18.260;2023-09-19T10:27:32;640.50;128.00
49052;DHT22;34866;48.670;18.260;2023-09-19T10:30:05;640.80;128.00
49052;DHT22;34866;48.670;18.260;2023-09-19T10:32:34;665.60;153.60
49052;DHT22;34866;48.670;18.260;2023-09-19T10:35:02;665.70;153.60
49052;DHT22;34866;48.670;18.260;2023-09-19T10:37:32;666.00;153.60
49052;DHT22;34866;48.670;18.260;2023-09-19T10:39:59;666.30;153.60
49052;DHT22;34866;48.670;18.260;2023-09-19T10:42:25;666.50;153.60
49052;DHT22;34866;48.670;18.260;2023-09-19T10:44:55;691.20;153.60
49052;DHT22;34866;48.670;18.260;2023-09-19T10:47:25;691.50;153.60
49052;DHT22;34866;48.670;18.260;2023-09-19T10:49:51;691.70;153.60
49052;DHT22;34866;48.670;18.260;2023-09-19T10:52:22;691.60;665.60
49052;DHT22;34866;48.670;18.260;2023-09-19T10:54:51;691.60;409.60
49052;DHT22;34866;48.670;18.260;2023-09-19T10:57:23;691.60;435.20
49052;DHT22;34866;48.670;18.260;2023-09-19T11:00:08;691.60;153.60
49052;DHT22;34866;48.670;18.260;2023-09-19T11:05:41;691.50;179.20
49052;DHT22;34866;48.670;18.260;2023-09-19T11:08:07;691.40;204.80
49052;DHT22;34866;48.670;18.260;2023-09-19T11:10:50;691.30;307.20
49052;DHT22;34866;48.670;18.260;2023-09-19T11:13:30;691.30;153.60
49052;DHT22;34866;48.670;18.260;2023-09-19T11:16:04;691.20;153.60
49052;DHT22;34866;48.670;18.260;2023-09-19T11:24:28;666.50;153.60
49052;DHT22;34866;48.670;18.260;2023-09-19T11:27:15;666.50;153.60
49052;DHT22;34866;48.670;18.260;2023-09-19T11:29:42;666.40;153.60
49052;DHT22;34866;48.670;18.260;2023-09-19T11:32:08;666.40;153.60
49052;DHT22;34866;48.670;18.260;2023-09-19T11:34:42;666.40;153.60
49052;DHT22;34866;48.670;18.260;2023-09-19T11:39:37;666.40;153.60
49052;DHT22;34866;48.670;18.260;2023-09-19T11:42:49;666.40;153.60
49052;DHT22;34866;48.670;18.260;2023-09-19T11:48:23;666.40;153.60
49052;DHT22;34866;48.670;18.260;2023-09-19T11:50:53;666.40;153.60
49052;DHT22;34866;48.670;18.260;2023-09-19T11:53:20;666.40;153.60
49052;DHT22;34866;48.670;18.260;2023-09-19T11:55:46;666.40;153.60
49052;DHT22;34866;48.670;18.260;2023-09-19T11:58:15;666.40;204.80
49052;DHT22;34866;48.670;18.260;2023-09-19T12:00:43;666.50;153.60
49052;DHT22;34866;48.670;18.260;2023-09-19T12:03:11;666.50;153.60
49052;DHT22;34866;48.670;18.260;2023-09-19T12:05:37;666.40;153.60
49052;DHT22;34866;48.670;18.260;2023-09-19T12:08:07;666.30;153.60
49052;DHT22;34866;48.670;18.260;2023-09-19T12:10:48;666.40;230.40
49052;DHT22;34866;48.670;18.260;2023-09-19T12:13:18;666.50;153.60
49052;DHT22;34866;48.670;18.260;2023-09-19T12:15:45;666.50;153.60
49052;DHT22;34866;48.670;18.260;2023-09-19T12:18:31;666.50;153.60
49052;DHT22;34866;48.670;18.260;2023-09-19T12:20:57;666.50;153.60
49052;DHT22;34866;48.670;18.260;2023-09-19T12:23:24;666.50;153.60
49052;DHT22;34866;48.670;18.260;2023-09-19T12:25:51;691.30;230.40
49052;DHT22;34866;48.670;18.260;2023-09-19T12:28:20;691.30;153.60
49052;DHT22;34866;48.670;18.260;2023-09-19T12:30:48;691.40;153.60
49052;DHT22;34866;48.670;18.260;2023-09-19T12:33:20;691.50;153.60
49052;DHT22;34866;48.670;18.260;2023-09-19T12:35:47;691.50;153.60
49052;DHT22;34866;48.670;18.260;2023-09-19T12:38:28;691.50;153.60
49052;DHT22;34866;48.670;18.260;2023-09-19T12:40:57;691.50;153.60
49052;DHT22;34866;48.670;18.260;2023-09-19T12:43:26;691.60;153.60
49052;DHT22;34866;48.670;18.260;2023-09-19T12:45:52;691.60;153.60
49052;DHT22;34866;48.670;18.260;2023-09-19T12:53:34;691.40;153.60
49052;DHT22;34866;48.670;18.260;2023-09-19T12:56:05;691.50;153.60
49052;DHT22;34866;48.670;18.260;2023-09-19T12:58:34;691.20;153.60
49052;DHT22;34866;48.670;18.260;2023-09-19T13:01:00;691.40;153.60
49052;DHT22;34866;48.670;18.260;2023-09-19T13:03:30;691.40;153.60
49052;DHT22;34866;48.670;18.260;2023-09-19T13:06:02;691.20;153.60
49052;DHT22;34866;48.670;18.260;2023-09-19T13:08:39;691.20;256.00
49052;DHT22;34866;48.670;18.260;2023-09-19T13:11:17;666.50;153.60
49052;DHT22;34866;48.670;18.260;2023-09-19T13:13:50;691.20;307.20
49052;DHT22;34866;48.670;18.260;2023-09-19T13:16:19;666.50;153.60
49052;DHT22;34866;48.670;18.260;2023-09-19T13:18:53;691.40;153.60
49052;DHT22;34866;48.670;18.260;2023-09-19T13:21:29;666.40;153.60
49052;DHT22;34866;48.670;18.260;2023-09-19T13:24:24;666.40;153.60
49052;DHT22;34866;48.670;18.260;2023-09-19T13:26:53;666.30;281.60
49052;DHT22;34866;48.670;18.260;2023-09-19T13:29:19;666.40;358.40
49052;DHT22;34866;48.670;18.260;2023-09-19T13:31:52;666.40;179.20
49052;DHT22;34866;48.670;18.260;2023-09-19T13:34:20;666.30;486.40
49052;DHT22;34866;48.670;18.260;2023-09-19T13:36:46;666.30;230.40
49052;DHT22;34866;48.670;18.260;2023-09-19T13:39:16;666.30;486.40
49052;DHT22;34866;48.670;18.260;2023-09-19T13:41:44;666.30;435.20
49052;DHT22;34866;48.670;18.260;2023-09-19T13:44:11;666.20;588.80
49052;DHT22;34866;48.670;18.260;2023-09-19T13:46:38;666.20;230.40
49052;DHT22;34866;48.670;18.260;2023-09-19T13:49:03;666.10;230.40
49052;DHT22;34866;48.670;18.260;2023-09-19T13:51:31;666.10;307.20
49052;DHT22;34866;48.670;18.260;2023-09-19T13:53:57;666.10;281.60
49052;DHT22;34866;48.670;18.260;2023-09-19T13:56:22;666.10;281.60
49052;DHT22;34866;48.670;18.260;2023-09-19T13:58:49;666.10;281.60
49052;DHT22;34866;48.670;18.260;2023-09-19T14:01:15;666.10;332.80
49052;DHT22;34866;48.670;18.260;2023-09-19T14:03:41;666.10;256.00
49052;DHT22;34866;48.670;18.260;2023-09-19T14:06:12;666.20;307.20
49052;DHT22;34866;48.670;18.260;2023-09-19T14:08:38;666.10;281.60
49052;DHT22;34866;48.670;18.260;2023-09-19T14:11:10;666.20;281.60
49052;DHT22;34866;48.670;18.260;2023-09-19T14:13:37;666.30;384.00
49052;DHT22;34866;48.670;18.260;2023-09-19T14:16:07;666.30;281.60
49052;DHT22;34866;48.670;18.260;2023-09-19T14:18:34;666.30;281.60
49052;DHT22;34866;48.670;18.260;2023-09-19T14:21:07;666.30;358.40
49052;DHT22;34866;48.670;18.260;2023-09-19T14:23:39;666.30;358.40
49052;DHT22;34866;48.670;18.260;2023-09-19T14:26:05;666.30;307.20
49052;DHT22;34866;48.670;18.260;2023-09-19T14:28:31;666.30;256.00
49052;DHT22;34866;48.670;18.260;2023-09-19T14:31:04;666.20;153.60
49052;DHT22;34866;48.670;18.260;2023-09-19T14:33:31;666.30;153.60
49052;DHT22;34866;48.670;18.260;2023-09-19T14:35:57;666.30;153.60
49052;DHT22;34866;48.670;18.260;2023-09-19T14:38:23;666.30;153.60
49052;DHT22;34866;48.670;18.260;2023-09-19T14:40:48;666.30;153.60
49052;DHT22;34866;48.670;18.260;2023-09-19T14:43:15;666.30;153.60
49052;DHT22;34866;48.670;18.260;2023-09-19T14:45:41;666.30;153.60
49052;DHT22;34866;48.670;18.260;2023-09-19T14:48:07;666.40;153.60
49052;DHT22;34866;48.670;18.260;2023-09-19T14:50:33;666.40;153.60
49052;DHT22;34866;48.670;18.260;2023-09-19T14:52:58;666.50;153.60
49052;DHT22;34866;48.670;18.260;2023-09-19T14:55:27;666.50;153.60
49052;DHT22;34866;48.670;18.260;2023-09-19T14:57:55;666.50;153.60
49052;DHT22;34866;48.670;18.260;2023-09-19T15:00:22;691.20;153.60
49052;DHT22;34866;48.670;18.260;2023-09-19T15:02:49;691.20;153.60
49052;DHT22;34866;48.670;18.260;2023-09-19T15:05:16;691.20;153.60
49052;DHT22;34866;48.670;18.260;2023-09-19T15:07:42;691.20;153.60
49052;DHT22;34866;48.670;18.260;2023-09-19T15:10:08;691.20;153.60
49052;DHT22;34866;48.670;18.260;2023-09-19T15:12:36;691.30;153.60
49052;DHT22;34866;48.670;18.260;2023-09-19T15:15:04;691.20;153.60
49052;DHT22;34866;48.670;18.260;2023-09-19T15:17:34;691.20;153.60
49052;DHT22;34866;48.670;18.260;2023-09-19T15:19:59;691.20;153.60
49052;DHT22;34866;48.670;18.260;2023-09-19T15:22:25;691.20;153.60
49052;DHT22;34866;48.670;18.260;2023-09-19T15:24:52;666.50;153.60
49052;DHT22;34866;48.670;18.260;2023-09-19T15:27:17;666.50;153.60
49052;DHT22;34866;48.670;18.260;2023-09-19T15:29:46;666.40;153.60
49052;DHT22;34866;48.670;18.260;2023-09-19T15:32:13;666.40;153.60
49052;DHT22;34866;48.670;18.260;2023-09-19T15:34:39;666.30;153.60